sensor_id;sensor_type;location;lat;lon;timestamp;pressure;altitude;pressure_sealevel;temperature;humidity
50011;BME280;35899;50.352;19.390;2023-04-27T00:01:20;97892.04;;;1.95;66.08
50011;BME280;35899;50.352;19.390;2023-04-27T00:03:46;97889.80;;;1.95;66.21
50011;BME280;35899;50.352;19.390;2023-04-27T00:06:13;97891.45;;;1.98;66.18
50011;BME280;35899;50.352;19.390;2023-04-27T00:08:40;97891.87;;;2.00;66.46
50011;BME280;35899;50.352;19.390;2023-04-27T00:11:06;97889.39;;;2.02;66.70
50011;BME280;35899;50.352;19.390;2023-04-27T00:13:33;97887.60;;;2.05;66.74
50011;BME280;35899;50.352;19.390;2023-04-27T00:15:59;97888.08;;;2.06;66.77
50011;BME280;35899;50.352;19.390;2023-04-27T00:18:26;97887.25;;;2.09;67.13
50011;BME280;35899;50.352;19.390;2023-04-27T00:20:52;97885.63;;;2.12;67.22
50011;BME280;35899;50.352;19.390;2023-04-27T00:23:19;97885.83;;;2.11;67.13
50011;BME280;35899;50.352;19.390;2023-04-27T00:25:45;97887.33;;;2.12;67.02
50011;BME280;35899;50.352;19.390;2023-04-27T00:28:12;97886.80;;;2.12;67.02
50011;BME280;35899;50.352;19.390;2023-04-27T00:30:38;97887.85;;;2.12;67.06
50011;BME280;35899;50.352;19.390;2023-04-27T00:33:07;97886.55;;;2.10;67.13
50011;BME280;35899;50.352;19.390;2023-04-27T00:35:34;97885.06;;;2.08;67.23
50011;BME280;35899;50.352;19.390;2023-04-27T00:38:00;97883.02;;;2.08;67.24
50011;BME280;35899;50.352;19.390;2023-04-27T00:40:27;97882.81;;;2.09;67.30
50011;BME280;35899;50.352;19.390;2023-04-27T00:42:53;97884.84;;;2.10;67.47
50011;BME280;35899;50.352;19.390;2023-04-27T00:45:24;97885.48;;;2.07;67.36
50011;BME280;35899;50.352;19.390;2023-04-27T00:47:50;97886.05;;;2.05;67.49
50011;BME280;35899;50.352;19.390;2023-04-27T00:50:17;97885.05;;;2.04;67.58
50011;BME280;35899;50.352;19.390;2023-04-27T00:52:50;97886.25;;;2.04;67.64
50011;BME280;35899;50.352;19.390;2023-04-27T00:55:16;97886.94;;;2.04;67.81
50011;BME280;35899;50.352;19.390;2023-04-27T00:57:42;97890.87;;;2.04;67.74
50011;BME280;35899;50.352;19.390;2023-04-27T01:00:09;97892.36;;;2.05;67.84
50011;BME280;35899;50.352;19.390;2023-04-27T04:59:06;98000.87;;;2.41;72.69
50011;BME280;35899;50.352;19.390;2023-04-27T05:01:35;98000.88;;;2.40;72.80
50011;BME280;35899;50.352;19.390;2023-04-27T05:04:07;98001.00;;;2.42;72.83
50011;BME280;35899;50.352;19.390;2023-04-27T05:06:36;98001.27;;;2.49;72.89
50011;BME280;35899;50.352;19.390;2023-04-27T05:09:05;98000.60;;;2.62;73.18
50011;BME280;35899;50.352;19.390;2023-04-27T05:11:32;97999.42;;;2.80;73.40
50011;BME280;35899;50.352;19.390;2023-04-27T05:13:58;97999.15;;;3.01;73.78
50011;BME280;35899;50.352;19.390;2023-04-27T05:16:25;97999.20;;;3.21;73.76
50011;BME280;35899;50.352;19.390;2023-04-27T05:18:51;98001.22;;;3.39;73.96
50011;BME280;35899;50.352;19.390;2023-04-27T05:21:18;98004.40;;;3.59;73.79
50011;BME280;35899;50.352;19.390;2023-04-27T05:23:47;98006.73;;;3.77;73.76
50011;BME280;35899;50.352;19.390;2023-04-27T05:26:14;98003.75;;;3.95;74.05
50011;BME280;35899;50.352;19.390;2023-04-27T05:28:40;98005.44;;;4.16;74.00
50011;BME280;35899;50.352;19.390;2023-04-27T05:31:10;98005.01;;;4.34;73.81
50011;BME280;35899;50.352;19.390;2023-04-27T05:33:36;98002.91;;;4.51;73.69
50011;BME280;35899;50.352;19.390;2023-04-27T05:36:03;98004.15;;;4.69;73.51
50011;BME280;35899;50.352;19.390;2023-04-27T05:38:29;98006.14;;;4.85;73.47
50011;BME280;35899;50.352;19.390;2023-04-27T05:40:56;98009.80;;;5.03;73.11
50011;BME280;35899;50.352;19.390;2023-04-27T05:43:23;98014.04;;;5.18;72.71
50011;BME280;35899;50.352;19.390;2023-04-27T05:45:50;98015.70;;;5.30;71.84
50011;BME280;35899;50.352;19.390;2023-04-27T05:48:16;98017.59;;;5.41;71.39
50011;BME280;35899;50.352;19.390;2023-04-27T05:50:43;98021.23;;;5.55;71.08
50011;BME280;35899;50.352;19.390;2023-04-27T05:53:09;98020.50;;;5.70;70.86
50011;BME280;35899;50.352;19.390;2023-04-27T05:55:35;98020.61;;;5.81;70.09
50011;BME280;35899;50.352;19.390;2023-04-27T05:58:02;98022.58;;;5.91;69.67
50011;BME280;35899;50.352;19.390;2023-04-27T06:00:34;98022.77;;;5.98;69.07
50011;BME280;35899;50.352;19.390;2023-04-27T06:03:01;98023.63;;;6.08;68.72
50011;BME280;35899;50.352;19.390;2023-04-27T06:05:28;98017.39;;;6.20;68.13
50011;BME280;35899;50.352;19.390;2023-04-27T06:07:54;98024.25;;;6.34;67.65
50011;BME280;35899;50.352;19.390;2023-04-27T06:10:21;98024.39;;;6.47;67.46
50011;BME280;35899;50.352;19.390;2023-04-27T06:12:47;98021.98;;;6.57;66.98
50011;BME280;35899;50.352;19.390;2023-04-27T06:15:14;98022.90;;;6.62;66.55
50011;BME280;35899;50.352;19.390;2023-04-27T06:17:40;98025.23;;;6.67;66.14
50011;BME280;35899;50.352;19.390;2023-04-27T06:20:07;98024.96;;;6.79;66.00
50011;BME280;35899;50.352;19.390;2023-04-27T06:22:33;98027.56;;;6.88;65.23
50011;BME280;35899;50.352;19.390;2023-04-27T06:25:00;98028.33;;;6.93;64.51
50011;BME280;35899;50.352;19.390;2023-04-27T06:27:26;98030.34;;;6.97;64.32
50011;BME280;35899;50.352;19.390;2023-04-27T06:29:52;98032.98;;;6.99;64.07
50011;BME280;35899;50.352;19.390;2023-04-27T06:32:19;98037.38;;;6.98;64.00
50011;BME280;35899;50.352;19.390;2023-04-27T06:34:45;98036.52;;;7.04;64.12
50011;BME280;35899;50.352;19.390;2023-04-27T06:37:12;98041.87;;;7.23;64.09
50011;BME280;35899;50.352;19.390;2023-04-27T06:39:38;98041.20;;;7.45;63.72
50011;BME280;35899;50.352;19.390;2023-04-27T06:42:05;98043.92;;;7.61;63.60
50011;BME280;35899;50.352;19.390;2023-04-27T06:44:31;98037.59;;;7.81;63.05
50011;BME280;35899;50.352;19.390;2023-04-27T06:46:57;98039.55;;;8.01;62.91
50011;BME280;35899;50.352;19.390;2023-04-27T06:49:25;98042.73;;;8.15;62.41
50011;BME280;35899;50.352;19.390;2023-04-27T06:51:51;98044.23;;;8.18;62.19
50011;BME280;35899;50.352;19.390;2023-04-27T06:54:17;98042.54;;;8.18;61.30
50011;BME280;35899;50.352;19.390;2023-04-27T06:56:44;98040.09;;;8.16;60.48
50011;BME280;35899;50.352;19.390;2023-04-27T06:59:10;98041.92;;;8.14;59.59
50011;BME280;35899;50.352;19.390;2023-04-27T07:01:40;98041.17;;;8.09;59.10
50011;BME280;35899;50.352;19.390;2023-04-27T07:04:06;98039.92;;;8.13;59.38
50011;BME280;35899;50.352;19.390;2023-04-27T07:06:33;98041.67;;;8.18;58.93
50011;BME280;35899;50.352;19.390;2023-04-27T07:08:59;98038.66;;;8.22;58.76
50011;BME280;35899;50.352;19.390;2023-04-27T07:11:26;98040.42;;;8.28;58.54
50011;BME280;35899;50.352;19.390;2023-04-27T07:13:52;98039.91;;;8.31;58.25
50011;BME280;35899;50.352;19.390;2023-04-27T07:16:19;98039.19;;;8.49;58.52
50011;BME280;35899;50.352;19.390;2023-04-27T07:18:51;98037.99;;;8.72;58.08
50011;BME280;35899;50.352;19.390;2023-04-27T07:30:42;98046.92;;;9.14;55.83
50011;BME280;35899;50.352;19.390;2023-04-27T07:45:09;98044.58;;;9.71;53.18
50011;BME280;35899;50.352;19.390;2023-04-27T07:47:49;98036.84;;;9.84;51.38
50011;BME280;35899;50.352;19.390;2023-04-27T07:50:23;98035.50;;;9.86;50.68
50011;BME280;35899;50.352;19.390;2023-04-27T07:52:51;98041.80;;;9.90;49.82
50011;BME280;35899;50.352;19.390;2023-04-27T07:58:27;98038.36;;;9.71;49.70
50011;BME280;35899;50.352;19.390;2023-04-27T08:04:01;98035.37;;;9.45;49.24
50011;BME280;35899;50.352;19.390;2023-04-27T08:25:34;98048.86;;;10.01;48.47
50011;BME280;35899;50.352;19.390;2023-04-27T08:28:01;98046.42;;;10.06;48.06
50011;BME280;35899;50.352;19.390;2023-04-27T08:30:27;98046.27;;;10.11;47.76
50011;BME280;35899;50.352;19.390;2023-04-27T08:32:54;98047.32;;;10.13;47.36
50011;BME280;35899;50.352;19.390;2023-04-27T08:35:21;98049.20;;;10.04;46.59
50011;BME280;35899;50.352;19.390;2023-04-27T08:37:47;98046.43;;;10.01;46.76
50011;BME280;35899;50.352;19.390;2023-04-27T08:40:13;98045.29;;;10.13;46.72
50011;BME280;35899;50.352;19.390;2023-04-27T08:42:41;98042.13;;;10.37;46.56
50011;BME280;35899;50.352;19.390;2023-04-27T08:45:18;98044.27;;;10.77;46.89
50011;BME280;35899;50.352;19.390;2023-04-27T08:47:45;98050.77;;;11.20;46.50
50011;BME280;35899;50.352;19.390;2023-04-27T08:50:11;98052.57;;;11.32;45.14
50011;BME280;35899;50.352;19.390;2023-04-27T08:52:38;98056.92;;;11.12;44.54
50011;BME280;35899;50.352;19.390;2023-04-27T08:55:05;98060.53;;;10.87;44.52
50011;BME280;35899;50.352;19.390;2023-04-27T08:57:32;98066.66;;;10.71;44.56
50011;BME280;35899;50.352;19.390;2023-04-27T08:59:58;98074.14;;;10.48;45.03
50011;BME280;35899;50.352;19.390;2023-04-27T09:02:25;98075.41;;;10.47;45.43
50011;BME280;35899;50.352;19.390;2023-04-27T09:04:52;98067.27;;;10.55;45.20
50011;BME280;35899;50.352;19.390;2023-04-27T09:07:18;98069.83;;;10.80;45.67
50011;BME280;35899;50.352;19.390;2023-04-27T09:09:45;98064.89;;;11.14;45.52
50011;BME280;35899;50.352;19.390;2023-04-27T09:12:20;98059.90;;;11.43;44.73
50011;BME280;35899;50.352;19.390;2023-04-27T09:17:26;98052.57;;;11.75;44.65
50011;BME280;35899;50.352;19.390;2023-04-27T09:20:03;98052.01;;;11.83;44.23
50011;BME280;35899;50.352;19.390;2023-04-27T09:22:51;98050.10;;;11.90;44.03
50011;BME280;35899;50.352;19.390;2023-04-27T09:25:32;98051.02;;;11.92;43.80
50011;BME280;35899;50.352;19.390;2023-04-27T09:31:04;98045.33;;;11.80;43.44
50011;BME280;35899;50.352;19.390;2023-04-27T09:33:32;98046.50;;;11.71;43.51
50011;BME280;35899;50.352;19.390;2023-04-27T09:36:06;98048.21;;;11.64;43.36
50011;BME280;35899;50.352;19.390;2023-04-27T09:38:33;98049.06;;;11.57;43.10
50011;BME280;35899;50.352;19.390;2023-04-27T09:40:59;98047.16;;;11.47;42.99
50011;BME280;35899;50.352;19.390;2023-04-27T09:43:26;98048.98;;;11.46;42.67
50011;BME280;35899;50.352;19.390;2023-04-27T09:45:53;98048.09;;;11.49;42.58
50011;BME280;35899;50.352;19.390;2023-04-27T09:48:20;98048.35;;;11.40;42.18
50011;BME280;35899;50.352;19.390;2023-04-27T09:50:48;98048.83;;;11.21;41.94
50011;BME280;35899;50.352;19.390;2023-04-27T09:53:16;98056.38;;;11.00;42.41
50011;BME280;35899;50.352;19.390;2023-04-27T09:56:10;98053.66;;;10.94;42.82
50011;BME280;35899;50.352;19.390;2023-04-27T09:58:46;98047.46;;;10.99;43.00
50011;BME280;35899;50.352;19.390;2023-04-27T10:08:49;98047.71;;;11.34;42.70
50011;BME280;35899;50.352;19.390;2023-04-27T10:11:16;98051.38;;;11.39;42.82
50011;BME280;35899;50.352;19.390;2023-04-27T10:13:52;98048.27;;;11.58;42.89
50011;BME280;35899;50.352;19.390;2023-04-27T10:16:21;98047.75;;;11.92;42.40
50011;BME280;35899;50.352;19.390;2023-04-27T10:18:54;98046.73;;;12.29;41.63
50011;BME280;35899;50.352;19.390;2023-04-27T10:21:21;98046.85;;;12.93;40.99
50011;BME280;35899;50.352;19.390;2023-04-27T10:23:50;98041.77;;;13.82;40.16
50011;BME280;35899;50.352;19.390;2023-04-27T10:26:23;98031.27;;;14.71;39.62
50011;BME280;35899;50.352;19.390;2023-04-27T10:31:26;98035.17;;;14.68;37.18
50011;BME280;35899;50.352;19.390;2023-04-27T10:34:03;98033.77;;;14.66;37.80
50011;BME280;35899;50.352;19.390;2023-04-27T10:36:34;98030.31;;;15.20;36.81
50011;BME280;35899;50.352;19.390;2023-04-27T10:39:15;98025.47;;;16.21;36.20
50011;BME280;35899;50.352;19.390;2023-04-27T10:41:49;98030.02;;;17.04;34.56
50011;BME280;35899;50.352;19.390;2023-04-27T10:44:17;98027.31;;;17.26;33.48
50011;BME280;35899;50.352;19.390;2023-04-27T10:46:50;98032.05;;;17.03;32.22
50011;BME280;35899;50.352;19.390;2023-04-27T10:49:16;98039.69;;;16.70;32.45
50011;BME280;35899;50.352;19.390;2023-04-27T10:51:43;98038.08;;;16.93;33.30
50011;BME280;35899;50.352;19.390;2023-04-27T10:54:10;98042.59;;;17.56;33.25
50011;BME280;35899;50.352;19.390;2023-04-27T10:56:36;98037.61;;;18.14;32.38
50011;BME280;35899;50.352;19.390;2023-04-27T10:59:03;98029.79;;;18.64;32.01
50011;BME280;35899;50.352;19.390;2023-04-27T11:01:30;98030.81;;;18.49;31.65
50011;BME280;35899;50.352;19.390;2023-04-27T11:03:57;98047.45;;;17.32;30.69
50011;BME280;35899;50.352;19.390;2023-04-27T11:06:24;98048.54;;;16.02;31.46
50011;BME280;35899;50.352;19.390;2023-04-27T11:08:50;98051.73;;;14.96;32.15
50011;BME280;35899;50.352;19.390;2023-04-27T11:11:17;98059.71;;;14.09;33.08
50011;BME280;35899;50.352;19.390;2023-04-27T11:13:43;98067.27;;;13.35;34.06
50011;BME280;35899;50.352;19.390;2023-04-27T11:16:10;98067.54;;;12.82;34.89
50011;BME280;35899;50.352;19.390;2023-04-27T11:18:42;98067.96;;;12.40;35.52
50011;BME280;35899;50.352;19.390;2023-04-27T11:21:09;98067.50;;;12.18;36.23
50011;BME280;35899;50.352;19.390;2023-04-27T11:23:36;98066.07;;;12.07;36.61
50011;BME280;35899;50.352;19.390;2023-04-27T11:26:10;98063.17;;;12.13;37.21
50011;BME280;35899;50.352;19.390;2023-04-27T11:28:37;98063.59;;;12.33;37.62
50011;BME280;35899;50.352;19.390;2023-04-27T11:31:04;98058.83;;;12.55;37.66
50011;BME280;35899;50.352;19.390;2023-04-27T11:33:31;98060.98;;;13.10;37.10
50011;BME280;35899;50.352;19.390;2023-04-27T11:35:58;98059.92;;;14.09;36.62
50011;BME280;35899;50.352;19.390;2023-04-27T11:38:25;98056.18;;;14.27;36.22
50011;BME280;35899;50.352;19.390;2023-04-27T11:40:58;98053.27;;;13.82;35.95
50011;BME280;35899;50.352;19.390;2023-04-27T11:43:26;98058.12;;;13.43;36.46
50011;BME280;35899;50.352;19.390;2023-04-27T11:45:52;98054.09;;;13.16;36.72
50011;BME280;35899;50.352;19.390;2023-04-27T11:48:19;98053.52;;;12.90;36.98
50011;BME280;35899;50.352;19.390;2023-04-27T11:50:45;98051.11;;;12.83;37.49
50011;BME280;35899;50.352;19.390;2023-04-27T11:53:12;98056.29;;;12.93;36.84
50011;BME280;35899;50.352;19.390;2023-04-27T11:55:38;98058.31;;;13.07;36.56
50011;BME280;35899;50.352;19.390;2023-04-27T11:58:05;98055.98;;;13.50;36.42
50011;BME280;35899;50.352;19.390;2023-04-27T12:00:31;98055.11;;;14.42;35.29
50011;BME280;35899;50.352;19.390;2023-04-27T12:03:01;98044.37;;;15.29;34.26
50011;BME280;35899;50.352;19.390;2023-04-27T12:05:28;98044.02;;;15.03;34.31
50011;BME280;35899;50.352;19.390;2023-04-27T12:07:55;98046.84;;;14.68;34.13
50011;BME280;35899;50.352;19.390;2023-04-27T12:10:21;98053.43;;;14.28;34.15
50011;BME280;35899;50.352;19.390;2023-04-27T12:12:48;98059.14;;;13.95;33.94
50011;BME280;35899;50.352;19.390;2023-04-27T12:15:14;98057.30;;;13.68;34.32
50011;BME280;35899;50.352;19.390;2023-04-27T12:17:40;98052.81;;;13.61;34.49
50011;BME280;35899;50.352;19.390;2023-04-27T12:20:07;98051.34;;;13.69;34.33
50011;BME280;35899;50.352;19.390;2023-04-27T12:22:34;98052.38;;;14.82;34.16
50011;BME280;35899;50.352;19.390;2023-04-27T12:25:00;98049.84;;;16.07;34.18
50011;BME280;35899;50.352;19.390;2023-04-27T12:27:27;98047.20;;;15.98;34.21
50011;BME280;35899;50.352;19.390;2023-04-27T12:29:54;98047.34;;;15.27;34.42
50011;BME280;35899;50.352;19.390;2023-04-27T12:32:29;98052.32;;;14.50;35.01
50011;BME280;35899;50.352;19.390;2023-04-27T12:34:56;98053.99;;;13.81;35.87
50011;BME280;35899;50.352;19.390;2023-04-27T12:37:25;98057.89;;;13.12;35.88
50011;BME280;35899;50.352;19.390;2023-04-27T12:39:55;98062.84;;;12.50;36.71
50011;BME280;35899;50.352;19.390;2023-04-27T12:42:24;98066.39;;;12.03;37.24
50011;BME280;35899;50.352;19.390;2023-04-27T12:44:50;98065.02;;;11.63;38.08
50011;BME280;35899;50.352;19.390;2023-04-27T12:47:18;98064.00;;;11.44;38.55
50011;BME280;35899;50.352;19.390;2023-04-27T12:50:06;98062.07;;;11.34;39.15
50011;BME280;35899;50.352;19.390;2023-04-27T12:52:55;98060.63;;;11.50;39.00
50011;BME280;35899;50.352;19.390;2023-04-27T12:55:22;98064.86;;;11.90;39.02
50011;BME280;35899;50.352;19.390;2023-04-27T12:58:00;98062.82;;;12.30;38.66
50011;BME280;35899;50.352;19.390;2023-04-27T13:00:28;98060.34;;;12.69;38.26
50011;BME280;35899;50.352;19.390;2023-04-27T13:02:54;98057.09;;;14.17;37.08
50011;BME280;35899;50.352;19.390;2023-04-27T13:05:23;98054.85;;;16.09;35.61
50011;BME280;35899;50.352;19.390;2023-04-27T13:08:10;98056.56;;;15.75;35.49
50011;BME280;35899;50.352;19.390;2023-04-27T13:10:36;98054.81;;;15.11;35.58
50011;BME280;35899;50.352;19.390;2023-04-27T13:13:03;98057.90;;;14.46;36.07
50011;BME280;35899;50.352;19.390;2023-04-27T13:15:29;98062.27;;;13.91;36.36
50011;BME280;35899;50.352;19.390;2023-04-27T13:17:56;98066.36;;;13.39;36.48
50011;BME280;35899;50.352;19.390;2023-04-27T13:20:22;98064.17;;;12.94;36.58
50011;BME280;35899;50.352;19.390;2023-04-27T13:22:49;98062.80;;;12.67;36.96
50011;BME280;35899;50.352;19.390;2023-04-27T13:25:16;98062.02;;;12.47;37.10
50011;BME280;35899;50.352;19.390;2023-04-27T13:27:42;98062.36;;;12.40;37.47
50011;BME280;35899;50.352;19.390;2023-04-27T13:30:10;98059.75;;;12.47;37.60
50011;BME280;35899;50.352;19.390;2023-04-27T13:32:37;98059.01;;;12.69;37.81
50011;BME280;35899;50.352;19.390;2023-04-27T13:35:06;98064.73;;;12.84;37.10
50011;BME280;35899;50.352;19.390;2023-04-27T13:37:33;98062.55;;;12.77;37.22
50011;BME280;35899;50.352;19.390;2023-04-27T13:40:00;98062.26;;;12.67;37.40
50011;BME280;35899;50.352;19.390;2023-04-27T13:42:28;98060.59;;;12.53;37.57
50011;BME280;35899;50.352;19.390;2023-04-27T13:44:55;98061.22;;;12.35;37.53
50011;BME280;35899;50.352;19.390;2023-04-27T13:47:25;98060.58;;;12.32;37.76
50011;BME280;35899;50.352;19.390;2023-04-27T13:49:51;98058.23;;;12.77;37.86
50011;BME280;35899;50.352;19.390;2023-04-27T13:52:18;98062.77;;;13.23;37.76
50011;BME280;35899;50.352;19.390;2023-04-27T13:54:44;98058.64;;;14.22;36.93
50011;BME280;35899;50.352;19.390;2023-04-27T13:57:10;98052.70;;;15.15;36.24
50011;BME280;35899;50.352;19.390;2023-04-27T14:02:29;98060.38;;;16.48;34.85
50011;BME280;35899;50.352;19.390;2023-04-27T14:04:56;98063.20;;;16.50;34.36
50011;BME280;35899;50.352;19.390;2023-04-27T14:07:23;98063.98;;;16.13;34.06
50011;BME280;35899;50.352;19.390;2023-04-27T14:09:49;98064.17;;;15.66;34.31
50011;BME280;35899;50.352;19.390;2023-04-27T14:12:16;98065.58;;;15.10;34.48
50011;BME280;35899;50.352;19.390;2023-04-27T14:14:42;98072.73;;;14.62;34.64
50011;BME280;35899;50.352;19.390;2023-04-27T14:17:09;98071.19;;;14.07;34.94
50011;BME280;35899;50.352;19.390;2023-04-27T14:19:35;98070.03;;;13.55;35.11
50011;BME280;35899;50.352;19.390;2023-04-27T14:22:01;98075.70;;;13.13;34.96
50011;BME280;35899;50.352;19.390;2023-04-27T14:24:28;98076.77;;;12.93;35.59
50011;BME280;35899;50.352;19.390;2023-04-27T14:26:54;98077.77;;;12.94;35.91
50011;BME280;35899;50.352;19.390;2023-04-27T14:31:47;98082.50;;;12.77;35.30
50011;BME280;35899;50.352;19.390;2023-04-27T14:34:14;98086.35;;;12.56;35.47
50011;BME280;35899;50.352;19.390;2023-04-27T14:36:40;98089.09;;;12.43;35.71
50011;BME280;35899;50.352;19.390;2023-04-27T14:39:07;98095.81;;;12.36;35.36
50011;BME280;35899;50.352;19.390;2023-04-27T14:41:33;98093.34;;;12.25;35.36
50011;BME280;35899;50.352;19.390;2023-04-27T14:44:00;98095.65;;;12.22;35.73
50011;BME280;35899;50.352;19.390;2023-04-27T14:46:26;98092.52;;;12.27;36.01
50011;BME280;35899;50.352;19.390;2023-04-27T14:48:56;98092.66;;;12.32;36.02
50011;BME280;35899;50.352;19.390;2023-04-27T14:51:23;98096.14;;;12.34;35.78
50011;BME280;35899;50.352;19.390;2023-04-27T14:53:49;98094.05;;;12.41;36.01
50011;BME280;35899;50.352;19.390;2023-04-27T14:56:15;98094.59;;;12.48;35.61
50011;BME280;35899;50.352;19.390;2023-04-27T14:58:42;98099.37;;;12.47;35.65
50011;BME280;35899;50.352;19.390;2023-04-27T15:01:08;98098.63;;;12.41;35.75
50011;BME280;35899;50.352;19.390;2023-04-27T15:03:35;98097.30;;;12.33;35.93
50011;BME280;35899;50.352;19.390;2023-04-27T15:06:02;98093.50;;;12.21;35.97
50011;BME280;35899;50.352;19.390;2023-04-27T15:08:29;98094.74;;;12.18;36.24
50011;BME280;35899;50.352;19.390;2023-04-27T15:11:00;98100.48;;;12.15;36.19
50011;BME280;35899;50.352;19.390;2023-04-27T15:13:26;98104.20;;;12.09;36.26
50011;BME280;35899;50.352;19.390;2023-04-27T15:15:56;98101.27;;;12.07;36.72
50011;BME280;35899;50.352;19.390;2023-04-27T15:18:23;98101.35;;;12.04;37.02
50011;BME280;35899;50.352;19.390;2023-04-27T15:20:53;98107.01;;;11.95;37.42
50011;BME280;35899;50.352;19.390;2023-04-27T15:23:20;98106.67;;;11.85;37.47
50011;BME280;35899;50.352;19.390;2023-04-27T15:25:47;98111.64;;;11.66;37.41
50011;BME280;35899;50.352;19.390;2023-04-27T15:28:14;98112.45;;;11.43;37.54
50011;BME280;35899;50.352;19.390;2023-04-27T15:30:41;98110.39;;;11.25;37.90
50011;BME280;35899;50.352;19.390;2023-04-27T15:33:07;98111.82;;;11.20;38.43
50011;BME280;35899;50.352;19.390;2023-04-27T15:35:36;98111.63;;;11.22;38.50
50011;BME280;35899;50.352;19.390;2023-04-27T15:38:02;98110.34;;;11.23;38.40
50011;BME280;35899;50.352;19.390;2023-04-27T15:40:29;98109.69;;;11.35;38.52
50011;BME280;35899;50.352;19.390;2023-04-27T15:42:55;98112.55;;;11.75;38.29
50011;BME280;35899;50.352;19.390;2023-04-27T15:45:22;98109.43;;;12.79;37.52
50011;BME280;35899;50.352;19.390;2023-04-27T15:47:48;98106.27;;;13.60;36.88
50011;BME280;35899;50.352;19.390;2023-04-27T15:50:15;98106.77;;;14.48;35.59
50011;BME280;35899;50.352;19.390;2023-04-27T15:52:45;98100.68;;;15.69;34.97
50011;BME280;35899;50.352;19.390;2023-04-27T15:55:12;98098.12;;;16.49;33.92
50011;BME280;35899;50.352;19.390;2023-04-27T15:57:41;98101.38;;;16.93;33.60
50011;BME280;35899;50.352;19.390;2023-04-27T16:00:08;98100.11;;;17.03;33.17
50011;BME280;35899;50.352;19.390;2023-04-27T16:02:38;98098.08;;;16.49;32.98
50011;BME280;35899;50.352;19.390;2023-04-27T16:05:05;98105.46;;;16.02;32.58
50011;BME280;35899;50.352;19.390;2023-04-27T16:07:33;98101.20;;;16.14;32.83
50011;BME280;35899;50.352;19.390;2023-04-27T16:10:00;98102.45;;;16.64;32.95
50011;BME280;35899;50.352;19.390;2023-04-27T16:12:27;98101.78;;;17.22;32.54
50011;BME280;35899;50.352;19.390;2023-04-27T16:14:53;98104.26;;;18.06;31.51
50011;BME280;35899;50.352;19.390;2023-04-27T16:17:20;98103.22;;;17.62;31.02
50011;BME280;35899;50.352;19.390;2023-04-27T16:19:46;98099.30;;;17.11;31.39
50011;BME280;35899;50.352;19.390;2023-04-27T16:22:13;98102.73;;;18.09;31.22
50011;BME280;35899;50.352;19.390;2023-04-27T16:24:40;98102.60;;;18.88;30.47
50011;BME280;35899;50.352;19.390;2023-04-27T16:27:06;98099.66;;;18.25;30.35
50011;BME280;35899;50.352;19.390;2023-04-27T16:29:32;98101.52;;;17.04;30.63
50011;BME280;35899;50.352;19.390;2023-04-27T16:31:59;98105.85;;;15.92;31.40
50011;BME280;35899;50.352;19.390;2023-04-27T16:34:26;98106.88;;;15.16;32.26
50011;BME280;35899;50.352;19.390;2023-04-27T16:36:52;98109.84;;;14.39;32.61
50011;BME280;35899;50.352;19.390;2023-04-27T16:39:19;98114.96;;;13.56;32.99
50011;BME280;35899;50.352;19.390;2023-04-27T16:41:46;98113.74;;;12.77;33.56
50011;BME280;35899;50.352;19.390;2023-04-27T16:44:13;98116.23;;;12.18;34.30
50011;BME280;35899;50.352;19.390;2023-04-27T16:46:40;98116.93;;;11.72;34.77
50011;BME280;35899;50.352;19.390;2023-04-27T16:49:06;98121.73;;;11.36;35.30
50011;BME280;35899;50.352;19.390;2023-04-27T16:51:33;98123.73;;;11.15;35.73
50011;BME280;35899;50.352;19.390;2023-04-27T16:53:59;98126.70;;;11.27;36.01
50011;BME280;35899;50.352;19.390;2023-04-27T16:56:26;98125.13;;;11.62;36.25
50011;BME280;35899;50.352;19.390;2023-04-27T16:58:53;98120.33;;;11.66;36.26
50011;BME280;35899;50.352;19.390;2023-04-27T17:01:21;98124.05;;;11.77;36.35
50011;BME280;35899;50.352;19.390;2023-04-27T17:03:48;98124.13;;;12.00;36.36
50011;BME280;35899;50.352;19.390;2023-04-27T17:06:14;98126.96;;;11.92;36.56
50011;BME280;35899;50.352;19.390;2023-04-27T17:08:44;98129.42;;;11.67;36.84
50011;BME280;35899;50.352;19.390;2023-04-27T17:11:10;98126.34;;;11.47;36.93
50011;BME280;35899;50.352;19.390;2023-04-27T17:13:37;98128.71;;;11.26;37.01
50011;BME280;35899;50.352;19.390;2023-04-27T17:16:03;98133.78;;;11.07;37.35
50011;BME280;35899;50.352;19.390;2023-04-27T17:18:30;98134.40;;;10.93;37.75
50011;BME280;35899;50.352;19.390;2023-04-27T17:20:56;98134.81;;;10.74;37.53
50011;BME280;35899;50.352;19.390;2023-04-27T17:23:23;98137.52;;;10.55;38.01
50011;BME280;35899;50.352;19.390;2023-04-27T17:25:49;98139.35;;;10.37;38.35
50011;BME280;35899;50.352;19.390;2023-04-27T17:28:15;98141.83;;;10.20;38.53
50011;BME280;35899;50.352;19.390;2023-04-27T17:30:42;98143.55;;;10.04;38.82
50011;BME280;35899;50.352;19.390;2023-04-27T17:33:08;98144.27;;;9.88;39.27
50011;BME280;35899;50.352;19.390;2023-04-27T17:35:35;98146.30;;;9.69;39.33
50011;BME280;35899;50.352;19.390;2023-04-27T17:38:02;98143.55;;;9.52;39.72
50011;BME280;35899;50.352;19.390;2023-04-27T17:40:29;98143.17;;;9.39;39.54
50011;BME280;35899;50.352;19.390;2023-04-27T17:42:55;98142.30;;;9.28;39.99
50011;BME280;35899;50.352;19.390;2023-04-27T17:45:22;98146.31;;;9.16;40.03
50011;BME280;35899;50.352;19.390;2023-04-27T17:47:49;98150.60;;;9.05;40.24
50011;BME280;35899;50.352;19.390;2023-04-27T17:50:15;98153.08;;;8.95;40.42
50011;BME280;35899;50.352;19.390;2023-04-27T17:52:42;98151.77;;;8.85;40.60
50011;BME280;35899;50.352;19.390;2023-04-27T17:55:08;98154.05;;;8.73;40.73
50011;BME280;35899;50.352;19.390;2023-04-27T17:57:34;98151.14;;;8.61;40.73
50011;BME280;35899;50.352;19.390;2023-04-27T18:00:01;98152.54;;;8.48;41.09